Time;durP1;ratioP1;P1;durP2;ratioP2;P2;SDS_P1;SDS_P2;PMS_P1;PMS_P2;Temp;Humidity;BMP_temperature;BMP_pressure;BME280_temperature;BME280_humidity;BME280_pressure;Samples;Min_cycle;Max_cycle;Signal;HPM_P1;HPM_P2
2022/02/11 00:08:12;;;;;;;;;84.00;64.67;;;;;5.73;74.33;100023.53;6312201;20;3651299;-44
2022/02/11 00:10:41;;;;;;;;;87.33;66.33;;;;;5.76;73.95;100015.44;6316442;20;3647130;-45
2022/02/11 00:13:11;;;;;;;;;93.50;67.50;;;;;5.71;74.18;100015.63;6314454;20;3549219;-44
2022/02/11 00:18:15;;;;;;;;;83.33;64.67;;;;;5.81;73.33;100024.13;6283611;20;3652429;-45
2022/02/11 00:20:50;;;;;;;;;81.00;64.33;;;;;5.69;73.72;100025.44;6315713;20;3631550;-45
2022/02/11 00:23:21;;;;;;;;;87.00;65.67;;;;;5.72;73.49;100028.00;6315119;20;3642028;-45
2022/02/11 00:25:57;;;;;;;;;82.33;65.33;;;;;5.56;74.19;100024.16;6314979;20;3641976;-44
2022/02/11 00:33:39;;;;;;;;;83.67;64.00;;;;;5.22;75.61;100027.13;6316213;20;3652331;-44
2022/02/11 00:36:10;;;;;;;;;87.33;66.33;;;;;5.28;75.13;100024.25;6316051;20;3638782;-44
2022/02/11 00:42:05;;;;;;;;;82.67;60.33;;;;;5.31;74.85;100024.13;6313526;20;3648221;-43
2022/02/11 01:06:15;;;;;;;;;86.00;64.00;;;;;5.12;76.30;100018.56;6312550;20;3626320;-45
2022/02/11 01:08:45;;;;;;;;;77.67;57.33;;;;;5.19;76.12;100009.47;6313914;20;3652356;-46
2022/02/11 01:11:22;;;;;;;;;80.00;62.33;;;;;5.02;76.77;100018.00;6312345;20;3635683;-49
2022/02/11 01:13:52;;;;;;;;;0.00;0.00;;;;;5.05;76.69;100012.59;6354065;20;2694018;-46
2022/02/11 01:16:32;;;;;;;;;84.33;63.00;;;;;5.02;76.40;100018.00;6313925;20;3652427;-44
2022/02/11 01:19:12;;;;;;;;;80.00;62.00;;;;;4.96;76.85;100018.22;6311988;20;3630694;-44
2022/02/11 01:21:57;;;;;;;;;81.67;64.00;;;;;4.59;77.45;100013.22;6313596;20;3645032;-44
2022/02/11 01:27:32;;;;;;;;;79.67;61.67;;;;;4.89;77.12;100003.38;6311897;20;3636717;-43
2022/02/11 01:35:21;;;;;;;;;85.67;64.00;;;;;4.59;78.41;100007.91;6310454;20;3630507;-45
2022/02/11 01:38:02;;;;;;;;;87.33;62.67;;;;;4.74;78.49;100015.41;6312167;20;3655451;-45
2022/02/11 01:49:06;;;;;;;;;89.00;65.33;;;;;5.06;77.01;100010.81;6312372;20;3651412;-43
2022/02/11 01:51:43;;;;;;;;;85.00;62.33;;;;;4.82;78.09;100012.50;6310547;20;3653391;-43
2022/02/11 01:54:49;;;;;;;;;76.67;60.33;;;;;5.00;77.65;100008.34;6279506;20;3634616;-45
2022/02/11 01:57:12;;;;;;;;;81.33;61.33;;;;;5.09;78.01;100009.84;6311190;20;3649268;-45
2022/02/11 02:13:43;;;;;;;;;83.33;62.33;;;;;5.11;78.07;99984.91;6313612;20;3654510;-44
2022/02/11 02:31:26;;;;;;;;;81.67;61.33;;;;;5.00;78.86;99989.72;6309084;20;3651565;-44
2022/02/11 02:57:50;;;;;;;;;83.00;62.67;;;;;4.38;80.21;99946.53;6274274;20;3645025;-45
2022/02/11 04:56:44;;;;;;;;;74.00;56.33;;;;;3.47;83.26;99985.53;6315252;20;2881715;-43
2022/02/11 05:02:02;;;;;;;;;78.00;60.00;;;;;3.36;83.37;99984.97;6314389;20;2887864;-45
2022/02/11 05:04:35;;;;;;;;;77.00;60.33;;;;;3.38;83.78;99983.16;6313025;20;3630534;-45
2022/02/11 05:07:05;;;;;;;;;83.67;62.33;;;;;3.45;83.30;99983.84;6315721;20;3651388;-44
2022/02/11 05:09:34;;;;;;;;;74.33;54.67;;;;;3.42;83.85;99981.28;6308458;20;2880292;-48
2022/02/11 05:12:05;;;;;;;;;87.33;63.67;;;;;3.32;83.95;99988.63;6313801;20;3652444;-47
2022/02/11 05:14:34;;;;;;;;;84.67;60.33;;;;;3.48;83.53;99994.41;6309739;20;3654391;-45
2022/02/11 05:17:06;;;;;;;;;81.00;62.00;;;;;3.17;85.28;99989.03;6312525;20;3631632;-46
2022/02/11 05:19:35;;;;;;;;;76.33;55.67;;;;;3.40;84.16;100002.56;6312828;20;2894192;-46
2022/02/11 05:22:06;;;;;;;;;54.00;41.00;;;;;3.46;84.00;99996.22;6313954;20;2763795;-44
2022/02/11 05:24:35;;;;;;;;;86.67;66.00;;;;;3.28;84.22;99995.78;6311346;20;2886791;-44
2022/02/11 05:27:05;;;;;;;;;96.00;71.33;;;;;3.36;84.34;99989.41;6313781;20;3665957;-47
2022/02/11 05:29:34;;;;;;;;;82.00;65.00;;;;;3.36;84.81;99994.72;6312369;20;2816928;-44
2022/02/11 05:32:04;;;;;;;;;87.67;66.33;;;;;3.47;83.73;99996.16;6281080;20;3646104;-44
2022/02/11 05:34:34;;;;;;;;;89.00;65.33;;;;;3.43;84.21;99988.34;6312440;20;3654385;-44
2022/02/11 05:37:04;;;;;;;;;85.67;63.67;;;;;3.35;84.76;99999.16;6312221;20;3641872;-46
2022/02/11 05:39:33;;;;;;;;;96.33;68.33;;;;;3.26;84.87;99994.09;6308875;20;3657710;-44
2022/02/11 05:42:04;;;;;;;;;89.00;64.00;;;;;3.56;84.11;99997.72;6274124;20;3666994;-45
2022/02/11 05:44:33;;;;;;;;;83.00;66.00;;;;;3.45;84.23;99995.34;6312966;20;2873287;-44
2022/02/11 05:47:06;;;;;;;;;96.33;68.00;;;;;3.59;83.65;100002.06;6312268;20;3648388;-44
2022/02/11 05:49:35;;;;;;;;;82.67;64.33;;;;;3.49;84.86;100004.09;6310309;20;3638780;-44
2022/02/11 05:52:06;;;;;;;;;89.67;64.67;;;;;3.47;84.40;100006.78;6312722;20;3659846;-45
2022/02/11 05:54:36;;;;;;;;;85.67;66.00;;;;;3.47;84.29;100011.22;6312543;20;2879688;-44
2022/02/11 05:57:06;;;;;;;;;91.67;66.00;;;;;3.44;85.00;100001.56;6311418;20;3662821;-44
2022/02/11 05:59:35;;;;;;;;;99.33;72.00;;;;;3.43;85.03;100001.63;6279446;20;3669997;-46
2022/02/11 06:02:05;;;;;;;;;92.33;69.33;;;;;3.37;85.74;100012.38;6278717;20;3651333;-45
2022/02/11 06:04:35;;;;;;;;;92.00;68.33;;;;;3.13;86.64;100014.75;6312332;20;3670023;-44
2022/02/11 06:07:05;;;;;;;;;92.00;68.67;;;;;3.45;85.53;100010.38;6280307;20;3650382;-44
2022/02/11 06:09:34;;;;;;;;;92.33;69.33;;;;;3.67;84.47;100016.00;6311907;20;3655436;-43
2022/02/11 06:12:04;;;;;;;;;93.00;69.00;;;;;3.49;84.82;100002.28;6312528;20;2783679;-44
2022/02/11 06:14:36;;;;;;;;;93.67;69.00;;;;;3.66;84.95;100009.81;6279231;20;3665837;-45
2022/02/11 06:17:06;;;;;;;;;83.00;62.33;;;;;3.70;84.53;100016.75;6309935;20;3655589;-44
2022/02/11 06:19:35;;;;;;;;;84.33;63.33;;;;;3.80;84.04;100027.13;6312306;20;3644098;-44
2022/02/11 06:22:05;;;;;;;;;85.33;64.67;;;;;4.04;83.17;100020.25;6307569;20;3633693;-45
2022/02/11 06:24:34;;;;;;;;;93.00;69.67;;;;;3.87;83.36;100023.38;6307951;20;3670040;-47
2022/02/11 06:27:04;;;;;;;;;92.00;70.33;;;;;4.03;83.26;100018.47;6310563;20;3649287;-46
2022/02/11 06:29:35;;;;;;;;;99.67;69.33;;;;;4.03;82.85;100029.09;6309164;20;3665867;-46
2022/02/11 06:32:06;;;;;;;;;91.67;68.67;;;;;4.03;82.96;100024.69;6311830;20;3643962;-48
2022/02/11 06:34:36;;;;;;;;;94.33;73.33;;;;;4.31;81.33;100027.38;6310257;20;3667918;-45
2022/02/11 06:37:06;;;;;;;;;98.00;74.67;;;;;4.31;81.34;100030.03;6279709;20;3655482;-43
2022/02/11 06:39:36;;;;;;;;;88.33;67.00;;;;;4.31;81.87;100030.03;6279607;20;3652306;-46
2022/02/11 06:42:06;;;;;;;;;98.00;72.67;;;;;4.38;81.24;100033.38;6313753;20;3665831;-43
2022/02/11 06:44:35;;;;;;;;;98.67;81.00;;;;;4.50;81.01;100014.41;6276307;20;3660649;-44
2022/02/11 06:47:06;;;;;;;;;92.67;68.00;;;;;4.62;81.10;100023.78;6278385;20;3653412;-46
2022/02/11 06:49:35;;;;;;;;;90.33;68.67;;;;;5.02;78.78;100027.78;6310659;20;3654393;-47
2022/02/11 06:52:06;;;;;;;;;90.00;67.33;;;;;5.21;78.32;100028.03;6308907;20;3636699;-44
2022/02/11 06:54:36;;;;;;;;;83.00;64.33;;;;;5.42;77.68;100024.63;6288460;20;3645859;-45
2022/02/11 06:57:05;;;;;;;;;91.67;66.33;;;;;5.43;77.00;100028.19;6308595;20;3655451;-45
2022/02/11 06:59:36;;;;;;;;;89.67;65.67;;;;;5.77;76.32;100017.19;6279301;20;3649178;-46
2022/02/11 07:02:18;;;;;;;;;75.33;58.00;;;;;6.03;75.12;100018.03;6311336;20;3636686;-46
2022/02/11 07:04:48;;;;;;;;;77.00;57.00;;;;;6.08;74.77;100026.72;6308352;20;3648160;-45
2022/02/11 07:07:17;;;;;;;;;84.33;61.33;;;;;6.27;74.12;100024.25;6308368;20;3654392;-46
2022/02/11 07:09:49;;;;;;;;;83.33;61.33;;;;;6.35;73.79;100024.81;6308559;20;3649271;-46
2022/02/11 07:12:19;;;;;;;;;82.67;61.67;;;;;7.19;71.20;100024.06;6311864;20;3649415;-47
2022/02/11 07:14:49;;;;;;;;;79.00;61.00;;;;;7.52;70.21;100023.53;6309482;20;3626283;-47
2022/02/11 07:17:18;;;;;;;;;76.00;58.33;;;;;7.72;68.95;100021.81;6310903;20;3638790;-46
2022/02/11 07:19:48;;;;;;;;;80.33;60.00;;;;;8.32;67.61;100018.13;6312646;20;3641976;-45
2022/02/11 07:22:18;;;;;;;;;75.33;57.33;;;;;8.17;68.12;100018.00;6313897;20;3639799;-46
2022/02/11 07:24:53;;;;;;;;;77.00;58.67;;;;;8.33;67.35;100024.34;6313988;20;3639796;-46
2022/02/11 07:27:22;;;;;;;;;73.33;57.00;;;;;8.47;66.95;100015.69;6314884;20;3629449;-46
2022/02/11 07:29:52;;;;;;;;;70.67;56.33;;;;;8.60;66.53;100011.50;6314047;20;3624229;-45
2022/02/11 07:32:21;;;;;;;;;72.33;58.00;;;;;7.76;68.46;100018.06;6313989;20;3617946;-49
2022/02/11 07:34:52;;;;;;;;;54.67;38.00;;;;;7.90;68.95;100015.66;6311480;20;2868028;-45
2022/02/11 07:37:22;;;;;;;;;80.67;61.00;;;;;7.98;68.63;100016.16;6313857;20;3642933;-45
2022/02/11 07:39:54;;;;;;;;;75.33;58.00;;;;;8.05;68.62;100017.59;6314993;20;3641895;-45
2022/02/11 07:42:29;;;;;;;;;76.33;58.00;;;;;8.57;67.01;100017.00;6286797;20;3625258;-49
2022/02/11 07:44:59;;;;;;;;;77.00;58.00;;;;;8.19;68.27;100026.78;6316929;20;3653519;-49
2022/02/11 07:47:29;;;;;;;;;70.67;56.00;;;;;7.86;69.46;100020.25;6317267;20;3630428;-45
2022/02/11 07:49:59;;;;;;;;;77.00;59.67;;;;;7.94;70.13;100017.22;6317745;20;3627388;-45
2022/02/11 07:52:29;;;;;;;;;73.00;58.00;;;;;7.76;70.59;100018.06;6318073;20;3627317;-48
2022/02/11 07:54:58;;;;;;;;;79.33;59.33;;;;;8.21;68.74;100019.56;6317453;20;3644990;-47
2022/02/11 07:57:28;;;;;;;;;75.00;57.67;;;;;8.57;67.89;100017.00;6317088;20;3636651;-48
2022/02/11 08:00:03;;;;;;;;;72.00;56.00;;;;;8.49;67.67;100020.03;6319326;20;3623143;-46
2022/02/11 08:02:37;;;;;;;;;79.00;60.67;;;;;8.42;68.16;100020.41;6317596;20;3618979;-46
2022/02/11 08:05:08;;;;;;;;;75.00;58.00;;;;;8.92;67.15;100017.09;6315822;20;3638762;-48
2022/02/11 08:07:38;;;;;;;;;75.67;58.33;;;;;9.10;66.34;100009.94;6317842;20;3614838;-47
2022/02/11 08:10:08;;;;;;;;;72.00;56.33;;;;;9.23;67.00;100011.06;6318287;20;3622084;-45
2022/02/11 08:12:38;;;;;;;;;75.00;56.00;;;;;9.61;64.65;100008.19;6318232;20;3642988;-46
2022/02/11 08:15:08;;;;;;;;;64.67;49.33;;;;;9.84;64.61;100002.50;6315278;20;3628348;-45
2022/02/11 08:17:40;;;;;;;;;65.00;48.00;;;;;9.75;64.53;100004.81;6320115;20;2770027;-49
2022/02/11 08:20:10;;;;;;;;;65.67;49.67;;;;;9.62;64.76;100012.63;6285384;20;3638785;-48
2022/02/11 08:22:41;;;;;;;;;66.33;53.33;;;;;9.97;63.87;100020.63;6317491;20;3623248;-48
2022/02/11 08:25:10;;;;;;;;;64.33;51.33;;;;;10.20;63.35;100019.38;6317073;20;2872228;-47
2022/02/11 08:27:40;;;;;;;;;66.33;52.00;;;;;10.07;63.60;100024.53;6317438;20;3614881;-44
2022/02/11 08:30:12;;;;;;;;;53.67;45.00;;;;;10.25;63.40;100015.50;6318744;20;2856500;-45
2022/02/11 08:32:42;;;;;;;;;64.00;50.00;;;;;10.58;62.92;100019.94;6318158;20;2860826;-49
2022/02/11 08:35:12;;;;;;;;;60.67;48.33;;;;;10.80;62.25;100008.03;6316256;20;3613788;-47
2022/02/11 08:37:42;;;;;;;;;48.67;39.33;;;;;10.62;62.60;100021.53;6315676;20;3616919;-46
2022/02/11 08:40:11;;;;;;;;;42.33;38.00;;;;;10.89;62.29;100018.22;6323660;20;3580471;-46
2022/02/11 08:42:41;;;;;;;;;56.33;41.00;;;;;11.00;62.01;100023.81;6284247;20;3616913;-44
2022/02/11 08:45:11;;;;;;;;;49.67;40.67;;;;;11.12;61.48;100025.81;6315611;20;2863918;-46
2022/02/11 08:47:40;;;;;;;;;55.33;43.33;;;;;10.89;62.46;100020.91;6316587;20;2863797;-49
2022/02/11 08:50:16;;;;;;;;;56.00;46.00;;;;;10.71;63.24;100015.63;6317541;20;2861880;-49
2022/02/11 08:52:46;;;;;;;;;55.00;45.00;;;;;10.72;62.54;100022.75;6316389;20;2859619;-49
2022/02/11 08:55:19;;;;;;;;;59.67;46.67;;;;;10.69;62.34;100022.91;6314295;20;2865028;-51
2022/02/11 08:57:52;;;;;;;;;60.00;47.33;;;;;11.14;62.17;100023.91;6317352;20;3627294;-46
2022/02/11 09:00:22;;;;;;;;;56.67;45.00;;;;;11.14;61.31;100031.97;6315829;20;3618984;-46
2022/02/11 09:02:50;;;;;;;;;55.00;44.50;;;;;10.70;62.22;100029.16;6319151;20;2845109;-46
2022/02/11 09:05:21;;;;;;;;;62.67;47.33;;;;;10.55;62.68;100015.63;6284103;20;3637743;-44
2022/02/11 09:08:02;;;;;;;;;48.67;41.00;;;;;10.98;61.80;100023.06;6317883;20;2854503;-45
2022/02/11 09:10:32;;;;;;;;;55.67;44.00;;;;;10.49;62.81;100020.47;6317734;20;3599234;-45
2022/02/11 09:13:02;;;;;;;;;56.00;44.50;;;;;10.36;63.63;100014.94;6319976;20;2854602;-47
2022/02/11 09:15:32;;;;;;;;;55.00;45.00;;;;;10.37;62.33;100007.72;6285468;20;2869283;-46
2022/02/11 09:18:01;;;;;;;;;49.00;43.00;;;;;10.82;62.46;100016.81;6317690;20;2852422;-45
2022/02/11 09:20:31;;;;;;;;;57.00;44.33;;;;;10.88;61.47;100011.97;6284641;20;3620062;-47
2022/02/11 09:23:00;;;;;;;;;53.67;43.67;;;;;10.84;61.49;100020.28;6317122;20;2859079;-45
2022/02/11 09:25:31;;;;;;;;;51.00;42.33;;;;;10.56;62.06;100019.19;6316501;20;2873289;-45
2022/02/11 09:28:01;;;;;;;;;57.00;46.00;;;;;10.75;62.11;100025.25;6316372;20;2865981;-49
2022/02/11 09:30:34;;;;;;;;;57.33;42.00;;;;;11.24;61.13;100021.53;6317577;20;3626291;-48
2022/02/11 09:33:05;;;;;;;;;54.67;42.67;;;;;11.37;61.12;100018.97;6316945;20;2862883;-48
2022/02/11 09:35:35;;;;;;;;;57.33;44.67;;;;;11.16;61.60;100021.13;6316239;20;3598154;-46
2022/02/11 09:38:04;;;;;;;;;70.00;53.67;;;;;11.65;60.59;100035.19;6317270;20;3627447;-48
2022/02/11 09:40:43;;;;;;;;;60.67;46.33;;;;;10.80;61.67;100014.25;6286834;20;3621108;-47
2022/02/11 09:43:15;;;;;;;;;60.33;48.33;;;;;11.09;61.65;100019.75;6316392;20;3620123;-47
2022/02/11 09:45:45;;;;;;;;;53.00;44.00;;;;;11.67;60.96;100024.34;6315556;20;2847187;-48
2022/02/11 09:48:13;;;;;;;;;63.67;49.00;;;;;11.32;61.18;100015.69;6318050;20;3634623;-46
2022/02/11 09:50:42;;;;;;;;;54.67;44.67;;;;;11.23;60.70;100016.25;6314348;20;3602363;-48
2022/02/11 09:53:18;;;;;;;;;51.67;41.00;;;;;11.99;59.06;100017.03;6317726;20;3604398;-48
2022/02/11 09:55:48;;;;;;;;;52.00;40.00;;;;;12.08;59.63;100016.47;6314144;20;2861807;-46
2022/02/11 09:58:21;;;;;;;;;54.00;42.33;;;;;12.15;58.03;100014.22;6317143;20;3606906;-46
2022/02/11 10:00:52;;;;;;;;;49.67;42.00;;;;;12.39;58.36;100011.81;6316232;20;3606501;-48
2022/02/11 10:03:30;;;;;;;;;48.00;39.00;;;;;12.34;58.04;100010.38;6317690;20;3624154;-47
2022/02/11 10:06:06;;;;;;;;;55.00;39.00;;;;;12.50;57.47;100014.66;6319563;20;3595424;-46
2022/02/11 10:08:40;;;;;;;;;49.67;37.00;;;;;12.38;57.61;100018.16;6284102;20;3623153;-46
2022/02/11 10:11:09;;;;;;;;;49.33;39.00;;;;;12.94;55.88;100016.31;6318078;20;3606468;-49
2022/02/11 10:13:41;;;;;;;;;46.33;38.00;;;;;12.74;57.16;100001.47;6282655;20;3613854;-48
2022/02/11 10:16:14;;;;;;;;;28.33;28.33;;;;;12.92;56.85;100007.44;6320618;20;3591891;-48
2022/02/11 10:18:48;;;;;;;;;47.33;38.00;;;;;12.73;56.78;100006.94;6286010;20;2859653;-46
2022/02/11 10:21:23;;;;;;;;;44.67;38.00;;;;;13.10;55.98;100004.50;6315072;20;3626274;-48
2022/02/11 10:23:57;;;;;;;;;47.67;37.67;;;;;13.20;55.47;100002.94;6317243;20;3588825;-48
2022/02/11 10:26:27;;;;;;;;;51.67;42.33;;;;;13.21;56.25;99996.56;6282592;20;2857641;-49
2022/02/11 10:28:57;;;;;;;;;42.67;35.33;;;;;13.35;55.23;99988.44;6321708;20;3611688;-47
2022/02/11 10:31:39;;;;;;;;;41.00;36.00;;;;;13.21;55.33;99990.31;6280977;20;2861798;-46
2022/02/11 10:34:18;;;;;;;;;44.00;36.00;;;;;13.13;54.91;99996.22;6319579;20;3607519;-48
2022/02/11 10:36:49;;;;;;;;;46.50;38.50;;;;;13.48;55.09;99987.56;6285783;20;2837757;-48
2022/02/11 10:39:31;;;;;;;;;47.50;39.00;;;;;13.03;55.24;99989.69;6283578;20;2831595;-47
2022/02/11 10:42:10;;;;;;;;;47.00;36.00;;;;;13.25;54.67;99983.75;6285982;20;3618998;-48
2022/02/11 10:44:42;;;;;;;;;37.33;33.67;;;;;13.35;55.16;99977.66;6314311;20;3601344;-47
2022/02/11 10:47:16;;;;;;;;;43.33;34.00;;;;;13.41;54.80;99983.59;6285445;20;3613818;-46
2022/02/11 10:49:50;;;;;;;;;51.67;40.33;;;;;13.38;54.94;99980.13;6316619;20;3613763;-46
2022/02/11 10:52:25;;;;;;;;;49.33;41.33;;;;;13.14;55.42;99976.38;6313042;20;2851416;-46
2022/02/11 10:54:56;;;;;;;;;51.00;39.00;;;;;13.51;54.89;99976.59;6316002;20;3628751;-46
2022/02/11 10:57:31;;;;;;;;;49.00;39.00;;;;;13.60;55.49;99970.56;6282975;20;3598230;-46
2022/02/11 11:00:04;;;;;;;;;48.33;37.00;;;;;14.21;53.30;99966.19;6316148;20;3596087;-47
2022/02/11 11:02:33;;;;;;;;;41.67;34.33;;;;;14.22;52.28;99965.25;6315972;20;3606553;-49
2022/02/11 11:05:09;;;;;;;;;46.00;37.67;;;;;14.60;52.27;99960.75;6314479;20;3606475;-46
2022/02/11 11:07:43;;;;;;;;;50.00;40.00;;;;;14.19;53.01;99956.47;6283531;20;3615897;-46
2022/02/11 11:10:18;;;;;;;;;52.00;37.00;;;;;14.18;53.39;99954.75;6312705;20;3630570;-46
2022/02/11 11:12:54;;;;;;;;;44.67;33.67;;;;;14.34;52.08;99951.81;6312332;20;3636753;-47
2022/02/11 11:15:26;;;;;;;;;42.67;36.67;;;;;14.44;51.81;99952.88;6281822;20;3609659;-48
2022/02/11 11:17:57;;;;;;;;;41.00;35.00;;;;;14.73;50.92;99960.69;6287041;20;2869143;-50
2022/02/11 11:20:26;;;;;;;;;44.67;38.00;;;;;14.68;50.87;99942.97;6320206;20;3605455;-46
2022/02/11 11:23:07;;;;;;;;;49.00;38.50;;;;;14.73;50.50;99944.47;6286487;20;2855472;-50
2022/02/11 11:26:10;;;;;;;;;44.33;35.00;;;;;14.90;50.13;99942.25;6284742;20;3626261;-50
2022/02/11 11:28:46;;;;;;;;;34.33;29.33;;;;;14.79;49.40;99941.31;6286857;20;3599918;-51
2022/02/11 11:31:29;;;;;;;;;35.67;31.33;;;;;14.48;50.43;99935.44;6287392;20;3607538;-51
2022/02/11 11:34:16;;;;;;;;;36.00;33.00;;;;;14.83;49.61;99935.56;6319702;20;2860745;-48
2022/02/11 11:37:07;;;;;;;;;36.67;32.00;;;;;15.41;49.31;99935.66;6320227;20;3592929;-51
2022/02/11 11:39:37;;;;;;;;;36.00;32.33;;;;;15.15;49.00;99935.81;6291312;20;3574171;-47
2022/02/11 11:42:17;;;;;;;;;26.00;25.50;;;;;15.11;47.79;99928.94;6288117;20;2845054;-49
2022/02/11 11:44:56;;;;;;;;;31.33;26.33;;;;;15.18;48.02;99932.00;6287050;20;3590851;-47
2022/02/11 11:47:41;;;;;;;;;29.67;26.33;;;;;15.15;47.29;99925.00;6318344;20;3591937;-46
2022/02/11 11:50:19;;;;;;;;;34.00;31.67;;;;;15.21;48.16;99923.66;6321254;20;3601323;-46
2022/02/11 11:52:50;;;;;;;;;45.33;36.00;;;;;14.82;49.84;99927.56;6288784;20;3607578;-46
2022/02/11 11:55:24;;;;;;;;;49.00;39.33;;;;;14.80;50.62;99934.94;6285239;20;2849200;-46
2022/02/11 11:57:53;;;;;;;;;49.33;41.00;;;;;14.67;50.76;99925.03;6320300;20;3605516;-48
2022/02/11 12:00:41;;;;;;;;;50.67;39.67;;;;;14.74;50.22;99927.28;6283660;20;3601288;-48
2022/02/11 12:03:11;;;;;;;;;48.33;37.00;;;;;15.03;49.66;99930.47;6323642;20;3625240;-48
2022/02/11 12:05:53;;;;;;;;;44.33;37.00;;;;;15.44;48.96;99924.59;6287216;20;3613756;-48
2022/02/11 12:08:29;;;;;;;;;46.33;39.00;;;;;15.18;49.49;99923.91;6320260;20;3590985;-49
2022/02/11 12:10:59;;;;;;;;;46.00;38.00;;;;;14.67;49.84;99925.03;6286634;20;2856515;-47
2022/02/11 12:13:28;;;;;;;;;48.33;38.00;;;;;15.08;50.07;99922.88;6289605;20;3610671;-46
2022/02/11 12:15:58;;;;;;;;;49.33;39.33;;;;;15.06;49.95;99925.72;6287426;20;3600293;-46
2022/02/11 12:18:28;;;;;;;;;51.67;38.00;;;;;14.38;51.29;99912.81;6285832;20;3635647;-47
2022/02/11 12:20:59;;;;;;;;;51.67;40.00;;;;;14.81;50.82;99910.47;6322508;20;3611811;-47
2022/02/11 12:29:07;;;;;;;;;50.33;41.67;;;;;14.77;49.98;99918.94;6289659;20;3605407;-46
2022/02/11 12:31:38;;;;;;;;;52.67;40.00;;;;;14.81;50.64;99915.88;6318197;20;3627848;-47
2022/02/11 12:34:17;;;;;;;;;51.25;38.25;;;;;14.98;50.11;99920.03;6285303;20;4383551;-47
2022/02/11 12:36:46;;;;;;;;;50.00;38.67;;;;;14.88;50.63;99913.59;6320149;20;3608584;-45
2022/02/11 12:39:23;;;;;;;;;46.33;37.67;;;;;14.80;50.52;99927.69;6285384;20;2855510;-45
2022/02/11 12:41:56;;;;;;;;;47.33;40.67;;;;;15.07;49.96;99921.16;6322704;20;3602363;-45
2022/02/11 12:44:32;;;;;;;;;49.50;40.50;;;;;15.17;49.82;99919.47;6286189;20;2857629;-45
2022/02/11 12:47:03;;;;;;;;;49.67;41.67;;;;;15.22;49.78;99927.22;6287820;20;2843092;-47
2022/02/11 12:49:35;;;;;;;;;49.33;39.33;;;;;14.98;50.33;99927.25;6321380;20;3594090;-48
2022/02/11 12:52:05;;;;;;;;;51.67;39.00;;;;;14.68;51.33;99921.34;6286400;20;2873267;-49
2022/02/11 12:54:34;;;;;;;;;53.33;43.33;;;;;15.17;49.88;99926.75;6320275;20;3581522;-48
2022/02/11 12:57:12;;;;;;;;;51.00;41.33;;;;;15.29;49.55;99923.06;6285016;20;3606515;-53
2022/02/11 12:59:52;;;;;;;;;49.67;40.33;;;;;15.60;49.55;99918.84;6321532;20;3617921;-48
2022/02/11 13:02:29;;;;;;;;;46.33;38.00;;;;;15.66;48.97;99928.31;6285671;20;2839894;-48
2022/02/11 13:05:24;;;;;;;;;40.00;35.50;;;;;15.71;48.59;99924.28;6318067;20;2845038;-51
2022/02/11 13:07:58;;;;;;;;;49.00;39.00;;;;;15.61;48.96;99930.50;6286421;20;2861890;-52
2022/02/11 13:10:39;;;;;;;;;45.00;36.00;;;;;15.44;49.94;99924.59;6319468;20;3582506;-51
2022/02/11 13:13:18;;;;;;;;;49.00;39.33;;;;;15.21;49.90;99922.81;6284513;20;3609633;-48
2022/02/11 13:15:47;;;;;;;;;52.67;41.67;;;;;15.56;49.65;99920.94;6322034;20;3595070;-49
2022/02/11 13:18:22;;;;;;;;;52.00;41.00;;;;;15.68;49.27;99927.22;6287291;20;2840955;-48
2022/02/11 13:20:55;;;;;;;;;53.00;42.00;;;;;15.22;49.63;99935.31;6320631;20;3603332;-51
2022/02/11 13:23:26;;;;;;;;;51.67;40.67;;;;;15.27;49.69;99930.44;6286254;20;3601333;-53
2022/02/11 13:25:57;;;;;;;;;52.00;40.67;;;;;14.45;50.69;99941.94;6320808;20;3614838;-53
2022/02/11 13:28:28;;;;;;;;;46.33;38.33;;;;;14.59;51.13;99945.50;6283688;20;3607570;-48
2022/02/11 13:31:02;;;;;;;;;47.33;37.00;;;;;14.50;51.11;99947.00;6320899;20;3607534;-43
2022/02/11 13:33:36;;;;;;;;;49.00;40.00;;;;;14.38;51.67;99945.22;6284349;20;2850798;-42
2022/02/11 13:36:09;;;;;;;;;49.33;40.33;;;;;14.35;51.73;99953.53;6321618;20;3613817;-42
2022/02/11 13:38:49;;;;;;;;;45.67;37.67;;;;;13.86;52.82;99965.16;6286225;20;2851306;-43
2022/02/11 13:41:32;;;;;;;;;28.00;23.33;;;;;13.45;52.41;99968.91;6315038;20;3593974;-42
2022/02/11 13:44:08;;;;;;;;;26.00;22.67;;;;;13.28;53.04;99970.94;6319478;20;3574729;-46
2022/02/11 13:47:00;;;;;;;;;19.50;19.50;;;;;13.08;53.07;99966.00;6280963;20;2834617;-45
2022/02/11 13:49:38;;;;;;;;;17.50;17.50;;;;;13.08;53.23;99966.00;6287502;20;2827438;-50
2022/02/11 13:55:05;;;;;;;;;26.33;26.33;;;;;12.85;53.86;99987.28;6282316;20;3598143;-49
2022/02/11 13:57:37;;;;;;;;;32.00;27.33;;;;;12.87;54.21;99993.41;6284351;20;3600266;-49
2022/02/11 14:00:37;;;;;;;;;21.50;20.50;;;;;12.49;54.30;99991.41;6284837;20;2500261;-48
2022/02/11 14:03:06;;;;;;;;;24.00;21.00;;;;;12.58;54.14;99992.63;6286252;20;2839831;-52
2022/02/11 14:05:49;;;;;;;;;21.50;20.50;;;;;12.60;53.84;99996.09;6280249;20;2494046;-49
2022/02/11 14:08:17;;;;;;;;;20.00;16.50;;;;;12.48;53.70;100013.94;6285695;20;2498254;-49
2022/02/11 14:10:49;;;;;;;;;26.33;22.00;;;;;12.34;55.10;100022.00;6282618;20;2848183;-46
2022/02/11 14:13:17;;;;;;;;;30.00;24.00;;;;;11.99;56.37;100022.41;6314651;20;3597087;-48
2022/02/11 14:15:46;;;;;;;;;24.00;20.50;;;;;11.90;56.97;100027.47;6279777;20;2848310;-50
2022/02/11 14:18:14;;;;;;;;;24.00;19.00;;;;;11.67;58.17;100031.56;6282421;20;2500320;-46
2022/02/11 14:20:42;;;;;;;;;27.50;22.00;;;;;11.64;58.68;100030.78;6283932;20;2844184;-47
2022/02/11 14:23:18;;;;;;;;;27.50;22.00;;;;;11.13;60.59;100032.91;6282438;20;2854443;-51
2022/02/11 14:25:47;;;;;;;;;19.33;14.33;;;;;11.06;60.98;100039.63;6285099;20;3537750;-48
2022/02/11 14:28:18;;;;;;;;;22.67;11.00;;;;;11.10;62.12;100046.53;6281930;20;3563790;-46
2022/02/11 14:30:48;;;;;;;;;25.67;22.33;;;;;10.73;63.39;100037.88;6318224;20;3575253;-46
2022/02/11 14:33:17;;;;;;;;;23.50;21.50;;;;;11.10;62.67;100043.84;6314654;20;2831636;-46
2022/02/11 14:35:46;;;;;;;;;19.00;19.00;;;;;10.89;63.25;100039.72;6285058;20;2826279;-50
2022/02/11 14:38:15;;;;;;;;;21.00;19.00;;;;;10.87;63.68;100042.47;6282068;20;2844099;-47
2022/02/11 14:43:31;;;;;;;;;20.33;15.67;;;;;10.80;64.09;100037.56;6280700;20;3547276;-47
2022/02/11 14:46:02;;;;;;;;;22.50;18.50;;;;;10.71;64.62;100042.47;6282481;20;2842028;-46
2022/02/11 14:48:31;;;;;;;;;21.50;20.50;;;;;10.61;65.17;100045.75;6285077;20;2829458;-47
2022/02/11 14:51:00;;;;;;;;;15.00;12.50;;;;;10.69;65.05;100055.16;6281630;20;2792033;-47
2022/02/11 14:53:29;;;;;;;;;20.00;17.00;;;;;10.65;65.25;100042.81;6283342;20;3558535;-46
2022/02/11 14:55:57;;;;;;;;;19.50;17.50;;;;;10.72;65.53;100054.97;6285583;20;2822107;-46
2022/02/11 14:58:24;;;;;;;;;25.00;19.50;;;;;10.75;65.56;100070.91;6286569;20;2828435;-48
2022/02/11 15:00:53;;;;;;;;;19.50;18.50;;;;;10.40;66.06;100053.19;6282462;20;2498205;-48
2022/02/11 15:03:21;;;;;;;;;19.00;18.00;;;;;10.54;66.02;100064.91;6284847;20;2498167;-49
2022/02/11 15:05:52;;;;;;;;;29.00;25.67;;;;;10.50;65.98;100065.16;6281543;20;2860747;-49
2022/02/11 15:08:22;;;;;;;;;17.00;13.00;;;;;10.39;66.23;100068.44;6315380;20;2815912;-44
2022/02/11 15:10:51;;;;;;;;;13.67;11.00;;;;;10.53;66.23;100070.34;6281057;20;2792057;-44
2022/02/11 15:13:19;;;;;;;;;13.00;11.00;;;;;10.47;66.59;100063.50;6313740;20;2789822;-46
2022/02/11 15:15:47;;;;;;;;;11.00;11.00;;;;;10.58;65.88;100072.78;6283228;20;2796104;-45
2022/02/11 15:18:16;;;;;;;;;13.60;12.60;;;;;10.14;66.86;100078.72;6307621;20;2800292;-45
2022/02/11 15:20:47;;;;;;;;;8.00;8.00;;;;;10.22;67.05;100087.25;6327925;20;1808728;-46
2022/02/11 15:23:17;;;;;;;;;14.00;11.20;;;;;10.24;67.57;100086.22;6308770;20;2792995;-47